sensor_id;sensor_type;location;lat;lon;timestamp;temperature;humidity
6824;DHT22;58633;49.470;11.004;2023-07-16T00:00:32;24.40;99.90
6824;DHT22;58633;49.470;11.004;2023-07-16T00:02:57;24.60;99.90
6824;DHT22;58633;49.470;11.004;2023-07-16T00:05:23;24.40;99.90
6824;DHT22;58633;49.470;11.004;2023-07-16T00:07:49;22.80;99.90
6824;DHT22;58633;49.470;11.004;2023-07-16T00:10:15;24.30;99.90
6824;DHT22;58633;49.470;11.004;2023-07-16T00:12:40;22.70;99.90
6824;DHT22;58633;49.470;11.004;2023-07-16T00:15:06;23.60;99.90
6824;DHT22;58633;49.470;11.004;2023-07-16T00:17:34;22.00;99.90
6824;DHT22;58633;49.470;11.004;2023-07-16T00:19:59;24.10;99.90
6824;DHT22;58633;49.470;11.004;2023-07-16T00:22:25;22.50;99.90
6824;DHT22;58633;49.470;11.004;2023-07-16T00:24:50;24.10;99.90
6824;DHT22;58633;49.470;11.004;2023-07-16T00:27:16;23.80;99.90
6824;DHT22;58633;49.470;11.004;2023-07-16T00:29:42;23.70;99.90
6824;DHT22;58633;49.470;11.004;2023-07-16T00:32:07;23.70;99.90
6824;DHT22;58633;49.470;11.004;2023-07-16T00:34:33;22.70;99.90
6824;DHT22;58633;49.470;11.004;2023-07-16T00:36:58;24.30;99.90
6824;DHT22;58633;49.470;11.004;2023-07-16T00:39:28;22.70;99.90
6824;DHT22;58633;49.470;11.004;2023-07-16T00:41:53;24.00;99.90
6824;DHT22;58633;49.470;11.004;2023-07-16T00:44:19;22.40;99.90
6824;DHT22;58633;49.470;11.004;2023-07-16T00:46:45;24.50;99.90
6824;DHT22;58633;49.470;11.004;2023-07-16T00:49:10;23.80;99.90
6824;DHT22;58633;49.470;11.004;2023-07-16T00:51:37;24.30;99.90
6824;DHT22;58633;49.470;11.004;2023-07-16T00:54:03;22.60;99.90
6824;DHT22;58633;49.470;11.004;2023-07-16T00:56:29;24.30;99.90
6824;DHT22;58633;49.470;11.004;2023-07-16T00:58:54;24.30;99.90
6824;DHT22;58633;49.470;11.004;2023-07-16T01:01:20;24.60;99.90
6824;DHT22;58633;49.470;11.004;2023-07-16T01:03:46;22.50;99.90
6824;DHT22;58633;49.470;11.004;2023-07-16T01:08:41;23.10;99.90
6824;DHT22;58633;49.470;11.004;2023-07-16T01:11:08;24.20;99.90
6824;DHT22;58633;49.470;11.004;2023-07-16T01:13:35;24.40;99.90
6824;DHT22;58633;49.470;11.004;2023-07-16T01:16:00;22.30;99.90
6824;DHT22;58633;49.470;11.004;2023-07-16T01:18:26;20.70;99.90
6824;DHT22;58633;49.470;11.004;2023-07-16T01:20:52;23.40;99.90
6824;DHT22;58633;49.470;11.004;2023-07-16T01:26:05;22.10;99.90
6824;DHT22;58633;49.470;11.004;2023-07-16T01:28:53;21.90;99.90
6824;DHT22;58633;49.470;11.004;2023-07-16T01:31:22;21.60;99.90
6824;DHT22;58633;49.470;11.004;2023-07-16T01:33:50;21.30;99.90
6824;DHT22;58633;49.470;11.004;2023-07-16T01:36:17;21.10;99.90
6824;DHT22;58633;49.470;11.004;2023-07-16T01:38:44;21.10;99.90
6824;DHT22;58633;49.470;11.004;2023-07-16T01:41:10;21.40;99.90
6824;DHT22;58633;49.470;11.004;2023-07-16T01:43:36;20.90;99.90
6824;DHT22;58633;49.470;11.004;2023-07-16T01:46:02;20.90;99.90
6824;DHT22;58633;49.470;11.004;2023-07-16T01:48:33;20.80;99.90
6824;DHT22;58633;49.470;11.004;2023-07-16T01:50:59;21.40;99.90
6824;DHT22;58633;49.470;11.004;2023-07-16T01:53:25;20.80;99.90
6824;DHT22;58633;49.470;11.004;2023-07-16T01:55:51;21.60;99.90
6824;DHT22;58633;49.470;11.004;2023-07-16T01:58:16;22.30;99.90
6824;DHT22;58633;49.470;11.004;2023-07-16T02:00:42;20.80;99.90
6824;DHT22;58633;49.470;11.004;2023-07-16T02:03:08;20.80;99.90
6824;DHT22;58633;49.470;11.004;2023-07-16T02:05:34;20.80;99.90
6824;DHT22;58633;49.470;11.004;2023-07-16T02:07:59;21.70;99.90
6824;DHT22;58633;49.470;11.004;2023-07-16T02:10:25;22.90;99.90
6824;DHT22;58633;49.470;11.004;2023-07-16T02:12:50;22.40;99.90
6824;DHT22;58633;49.470;11.004;2023-07-16T02:15:16;19.50;99.90
6824;DHT22;58633;49.470;11.004;2023-07-16T02:17:43;20.80;99.90
6824;DHT22;58633;49.470;11.004;2023-07-16T02:20:09;22.80;99.90
6824;DHT22;58633;49.470;11.004;2023-07-16T02:22:36;20.60;99.90
6824;DHT22;58633;49.470;11.004;2023-07-16T02:25:02;20.70;99.90
6824;DHT22;58633;49.470;11.004;2023-07-16T02:27:28;23.00;99.90
6824;DHT22;58633;49.470;11.004;2023-07-16T02:29:54;20.60;99.90
6824;DHT22;58633;49.470;11.004;2023-07-16T02:32:19;20.50;99.90
6824;DHT22;58633;49.470;11.004;2023-07-16T02:34:45;22.60;99.90
6824;DHT22;58633;49.470;11.004;2023-07-16T02:37:10;20.60;99.90
6824;DHT22;58633;49.470;11.004;2023-07-16T02:39:36;22.70;99.90
6824;DHT22;58633;49.470;11.004;2023-07-16T02:42:01;20.30;99.90
6824;DHT22;58633;49.470;11.004;2023-07-16T02:44:27;20.50;99.90
6824;DHT22;58633;49.470;11.004;2023-07-16T02:46:53;22.10;99.90
6824;DHT22;58633;49.470;11.004;2023-07-16T02:49:18;21.60;99.90
6824;DHT22;58633;49.470;11.004;2023-07-16T02:51:44;22.60;99.90
6824;DHT22;58633;49.470;11.004;2023-07-16T02:54:09;23.10;99.90
6824;DHT22;58633;49.470;11.004;2023-07-16T02:56:36;20.40;99.90
6824;DHT22;58633;49.470;11.004;2023-07-16T02:59:02;21.00;99.90
6824;DHT22;58633;49.470;11.004;2023-07-16T03:01:28;21.00;99.90
6824;DHT22;58633;49.470;11.004;2023-07-16T03:03:54;20.50;99.90
6824;DHT22;58633;49.470;11.004;2023-07-16T03:06:19;21.90;99.90
6824;DHT22;58633;49.470;11.004;2023-07-16T03:08:45;20.60;99.90
6824;DHT22;58633;49.470;11.004;2023-07-16T03:11:11;20.60;99.90
6824;DHT22;58633;49.470;11.004;2023-07-16T03:13:37;20.60;99.90
6824;DHT22;58633;49.470;11.004;2023-07-16T03:16:03;22.00;99.90
6824;DHT22;58633;49.470;11.004;2023-07-16T03:18:30;20.60;99.90
6824;DHT22;58633;49.470;11.004;2023-07-16T03:20:57;20.70;99.90
6824;DHT22;58633;49.470;11.004;2023-07-16T03:23:25;20.70;99.90
6824;DHT22;58633;49.470;11.004;2023-07-16T03:25:54;22.10;99.90
6824;DHT22;58633;49.470;11.004;2023-07-16T03:28:20;20.60;99.90
6824;DHT22;58633;49.470;11.004;2023-07-16T03:30:50;21.80;99.90
6824;DHT22;58633;49.470;11.004;2023-07-16T03:33:16;21.00;99.90
6824;DHT22;58633;49.470;11.004;2023-07-16T03:35:43;21.40;99.90
6824;DHT22;58633;49.470;11.004;2023-07-16T03:38:10;20.70;99.90
6824;DHT22;58633;49.470;11.004;2023-07-16T03:40:39;22.50;99.90
6824;DHT22;58633;49.470;11.004;2023-07-16T03:43:05;20.20;99.90
6824;DHT22;58633;49.470;11.004;2023-07-16T03:45:31;22.50;99.90
6824;DHT22;58633;49.470;11.004;2023-07-16T03:47:57;21.30;99.90
6824;DHT22;58633;49.470;11.004;2023-07-16T03:50:25;21.80;99.90
6824;DHT22;58633;49.470;11.004;2023-07-16T03:52:51;20.70;99.90
6824;DHT22;58633;49.470;11.004;2023-07-16T03:55:16;21.60;99.90
6824;DHT22;58633;49.470;11.004;2023-07-16T03:57:42;20.50;99.90
6824;DHT22;58633;49.470;11.004;2023-07-16T04:00:08;20.50;99.90
6824;DHT22;58633;49.470;11.004;2023-07-16T04:02:35;20.50;99.90
6824;DHT22;58633;49.470;11.004;2023-07-16T04:05:01;22.30;99.90
6824;DHT22;58633;49.470;11.004;2023-07-16T04:07:27;21.50;99.90
6824;DHT22;58633;49.470;11.004;2023-07-16T04:09:53;21.40;99.90
6824;DHT22;58633;49.470;11.004;2023-07-16T04:12:18;20.60;99.90
6824;DHT22;58633;49.470;11.004;2023-07-16T04:14:44;20.60;99.90
6824;DHT22;58633;49.470;11.004;2023-07-16T04:17:10;20.60;99.90
6824;DHT22;58633;49.470;11.004;2023-07-16T04:19:36;20.50;99.90
6824;DHT22;58633;49.470;11.004;2023-07-16T04:22:01;20.50;99.90
6824;DHT22;58633;49.470;11.004;2023-07-16T04:24:27;20.50;99.90
6824;DHT22;58633;49.470;11.004;2023-07-16T04:26:53;20.40;99.90
6824;DHT22;58633;49.470;11.004;2023-07-16T04:29:19;20.40;99.90
6824;DHT22;58633;49.470;11.004;2023-07-16T04:31:45;20.60;99.90
6824;DHT22;58633;49.470;11.004;2023-07-16T04:34:11;21.00;99.90
6824;DHT22;58633;49.470;11.004;2023-07-16T04:36:36;20.10;99.90
6824;DHT22;58633;49.470;11.004;2023-07-16T04:39:02;20.10;99.90
6824;DHT22;58633;49.470;11.004;2023-07-16T04:41:27;20.10;98.90
6824;DHT22;58633;49.470;11.004;2023-07-16T04:43:53;21.10;98.30
6824;DHT22;58633;49.470;11.004;2023-07-16T04:46:19;20.00;96.50
6824;DHT22;58633;49.470;11.004;2023-07-16T04:48:44;21.60;95.80
6824;DHT22;58633;49.470;11.004;2023-07-16T04:51:10;19.90;94.60
6824;DHT22;58633;49.470;11.004;2023-07-16T04:53:36;20.80;95.40
6824;DHT22;58633;49.470;11.004;2023-07-16T04:56:01;20.90;94.90
6824;DHT22;58633;49.470;11.004;2023-07-16T04:58:27;20.00;93.80
6824;DHT22;58633;49.470;11.004;2023-07-16T05:00:52;20.10;92.50
6824;DHT22;58633;49.470;11.004;2023-07-16T05:03:18;19.90;91.80
6824;DHT22;58633;49.470;11.004;2023-07-16T05:05:43;19.90;92.30
6824;DHT22;58633;49.470;11.004;2023-07-16T05:08:09;19.90;91.80
6824;DHT22;58633;49.470;11.004;2023-07-16T05:10:35;19.90;91.60
6824;DHT22;58633;49.470;11.004;2023-07-16T05:13:00;19.90;91.00
6824;DHT22;58633;49.470;11.004;2023-07-16T05:15:29;20.00;91.50
6824;DHT22;58633;49.470;11.004;2023-07-16T05:17:54;21.20;91.80
6824;DHT22;58633;49.470;11.004;2023-07-16T05:20:23;21.30;92.30
6824;DHT22;58633;49.470;11.004;2023-07-16T05:22:48;20.30;91.60
6824;DHT22;58633;49.470;11.004;2023-07-16T05:25:14;19.90;90.90
6824;DHT22;58633;49.470;11.004;2023-07-16T05:27:39;19.70;91.30
6824;DHT22;58633;49.470;11.004;2023-07-16T05:30:06;21.80;92.70
6824;DHT22;58633;49.470;11.004;2023-07-16T05:32:31;19.80;91.90
6824;DHT22;58633;49.470;11.004;2023-07-16T05:34:57;19.90;91.00
6824;DHT22;58633;49.470;11.004;2023-07-16T05:37:23;19.90;91.00
6824;DHT22;58633;49.470;11.004;2023-07-16T05:39:48;19.90;90.20
6824;DHT22;58633;49.470;11.004;2023-07-16T05:42:14;19.90;89.40
6824;DHT22;58633;49.470;11.004;2023-07-16T05:44:40;20.00;89.80
6824;DHT22;58633;49.470;11.004;2023-07-16T05:47:07;19.90;89.00
6824;DHT22;58633;49.470;11.004;2023-07-16T05:49:33;19.90;88.40
6824;DHT22;58633;49.470;11.004;2023-07-16T05:51:59;19.90;88.80
6824;DHT22;58633;49.470;11.004;2023-07-16T05:54:24;20.80;89.40
6824;DHT22;58633;49.470;11.004;2023-07-16T05:56:50;19.90;89.20
6824;DHT22;58633;49.470;11.004;2023-07-16T05:59:16;20.00;89.30
6824;DHT22;58633;49.470;11.004;2023-07-16T06:01:41;20.00;88.30
6824;DHT22;58633;49.470;11.004;2023-07-16T06:04:07;20.00;87.20
6824;DHT22;58633;49.470;11.004;2023-07-16T06:06:32;22.30;88.20
6824;DHT22;58633;49.470;11.004;2023-07-16T06:08:58;20.00;85.00
6824;DHT22;58633;49.470;11.004;2023-07-16T06:11:24;21.60;86.20
6824;DHT22;58633;49.470;11.004;2023-07-16T06:13:49;22.10;86.10
6824;DHT22;58633;49.470;11.004;2023-07-16T06:16:15;20.00;83.80
6824;DHT22;58633;49.470;11.004;2023-07-16T06:18:40;20.30;83.30
6824;DHT22;58633;49.470;11.004;2023-07-16T06:21:06;20.00;83.70
6824;DHT22;58633;49.470;11.004;2023-07-16T06:23:31;20.00;84.00
6824;DHT22;58633;49.470;11.004;2023-07-16T06:25:57;20.90;85.20
6824;DHT22;58633;49.470;11.004;2023-07-16T06:28:23;20.00;84.60
6824;DHT22;58633;49.470;11.004;2023-07-16T06:30:50;20.10;84.10
6824;DHT22;58633;49.470;11.004;2023-07-16T06:33:17;20.80;84.00
6824;DHT22;58633;49.470;11.004;2023-07-16T06:35:47;20.70;84.00
6824;DHT22;58633;49.470;11.004;2023-07-16T06:38:13;20.10;82.50
6824;DHT22;58633;49.470;11.004;2023-07-16T06:40:39;20.10;82.50
6824;DHT22;58633;49.470;11.004;2023-07-16T06:43:05;20.10;83.50
6824;DHT22;58633;49.470;11.004;2023-07-16T06:45:30;21.50;84.60
6824;DHT22;58633;49.470;11.004;2023-07-16T06:47:56;20.10;83.50
6824;DHT22;58633;49.470;11.004;2023-07-16T06:50:21;22.10;87.10
6824;DHT22;58633;49.470;11.004;2023-07-16T06:52:47;20.00;84.70
6824;DHT22;58633;49.470;11.004;2023-07-16T06:55:13;19.90;83.50
6824;DHT22;58633;49.470;11.004;2023-07-16T06:57:38;20.00;83.10
6824;DHT22;58633;49.470;11.004;2023-07-16T07:00:05;20.10;82.50
6824;DHT22;58633;49.470;11.004;2023-07-16T07:02:31;20.10;82.50
6824;DHT22;58633;49.470;11.004;2023-07-16T07:04:57;20.20;81.30
6824;DHT22;58633;49.470;11.004;2023-07-16T07:07:23;20.20;81.20
6824;DHT22;58633;49.470;11.004;2023-07-16T07:09:49;20.20;80.70
6824;DHT22;58633;49.470;11.004;2023-07-16T07:12:14;20.20;80.90
6824;DHT22;58633;49.470;11.004;2023-07-16T07:14:40;20.20;81.10
6824;DHT22;58633;49.470;11.004;2023-07-16T07:17:05;20.10;80.40
6824;DHT22;58633;49.470;11.004;2023-07-16T07:19:31;21.80;82.50
6824;DHT22;58633;49.470;11.004;2023-07-16T07:21:57;20.10;81.10
6824;DHT22;58633;49.470;11.004;2023-07-16T07:24:23;20.10;80.90
6824;DHT22;58633;49.470;11.004;2023-07-16T07:26:49;20.70;80.40
6824;DHT22;58633;49.470;11.004;2023-07-16T07:29:14;20.10;80.00
6824;DHT22;58633;49.470;11.004;2023-07-16T07:31:40;20.10;78.80
6824;DHT22;58633;49.470;11.004;2023-07-16T07:34:06;21.00;79.50
6824;DHT22;58633;49.470;11.004;2023-07-16T07:36:31;20.20;78.10
6824;DHT22;58633;49.470;11.004;2023-07-16T07:38:57;20.20;77.60
6824;DHT22;58633;49.470;11.004;2023-07-16T07:41:23;20.30;77.70
6824;DHT22;58633;49.470;11.004;2023-07-16T07:43:48;20.40;77.10
6824;DHT22;58633;49.470;11.004;2023-07-16T07:46:14;20.40;76.10
6824;DHT22;58633;49.470;11.004;2023-07-16T07:48:39;20.80;76.40
6824;DHT22;58633;49.470;11.004;2023-07-16T07:51:05;20.60;76.00
6824;DHT22;58633;49.470;11.004;2023-07-16T07:53:30;22.70;77.10
6824;DHT22;58633;49.470;11.004;2023-07-16T07:55:56;20.80;74.50
6824;DHT22;58633;49.470;11.004;2023-07-16T07:58:22;21.90;75.90
6824;DHT22;58633;49.470;11.004;2023-07-16T08:00:48;20.70;74.60
6824;DHT22;58633;49.470;11.004;2023-07-16T08:03:13;20.80;73.80
6824;DHT22;58633;49.470;11.004;2023-07-16T08:05:39;22.20;74.60
6824;DHT22;58633;49.470;11.004;2023-07-16T08:08:04;21.30;74.00
6824;DHT22;58633;49.470;11.004;2023-07-16T08:10:30;20.60;73.40
6824;DHT22;58633;49.470;11.004;2023-07-16T08:12:55;20.70;73.50
6824;DHT22;58633;49.470;11.004;2023-07-16T08:15:21;21.00;73.60
6824;DHT22;58633;49.470;11.004;2023-07-16T08:17:47;20.80;73.40
6824;DHT22;58633;49.470;11.004;2023-07-16T08:20:13;20.80;73.00
6824;DHT22;58633;49.470;11.004;2023-07-16T08:22:39;21.80;73.60
6824;DHT22;58633;49.470;11.004;2023-07-16T08:25:06;21.00;72.50
6824;DHT22;58633;49.470;11.004;2023-07-16T08:27:32;21.00;71.80
6824;DHT22;58633;49.470;11.004;2023-07-16T08:29:58;22.50;72.90
6824;DHT22;58633;49.470;11.004;2023-07-16T08:32:24;21.00;70.80
6824;DHT22;58633;49.470;11.004;2023-07-16T08:34:50;20.90;70.70
6824;DHT22;58633;49.470;11.004;2023-07-16T08:37:15;20.90;71.10
6824;DHT22;58633;49.470;11.004;2023-07-16T08:39:41;22.00;72.20
6824;DHT22;58633;49.470;11.004;2023-07-16T08:42:09;20.80;70.50
6824;DHT22;58633;49.470;11.004;2023-07-16T08:44:37;20.90;70.90
6824;DHT22;58633;49.470;11.004;2023-07-16T08:47:04;21.10;70.90
6824;DHT22;58633;49.470;11.004;2023-07-16T08:49:30;21.20;70.70
6824;DHT22;58633;49.470;11.004;2023-07-16T08:51:56;21.20;70.20
6824;DHT22;58633;49.470;11.004;2023-07-16T08:54:22;21.20;70.20
6824;DHT22;58633;49.470;11.004;2023-07-16T08:56:51;21.20;70.10
6824;DHT22;58633;49.470;11.004;2023-07-16T08:59:17;21.20;70.10
6824;DHT22;58633;49.470;11.004;2023-07-16T09:01:43;21.20;70.10
6824;DHT22;58633;49.470;11.004;2023-07-16T09:04:09;21.20;70.10
6824;DHT22;58633;49.470;11.004;2023-07-16T09:06:34;21.20;70.00
6824;DHT22;58633;49.470;11.004;2023-07-16T09:09:00;21.20;70.10
6824;DHT22;58633;49.470;11.004;2023-07-16T09:11:25;21.30;70.20
6824;DHT22;58633;49.470;11.004;2023-07-16T09:13:52;21.30;70.20
6824;DHT22;58633;49.470;11.004;2023-07-16T09:16:18;22.70;71.20
6824;DHT22;58633;49.470;11.004;2023-07-16T09:18:44;21.50;69.10
6824;DHT22;58633;49.470;11.004;2023-07-16T09:21:10;21.70;68.70
6824;DHT22;58633;49.470;11.004;2023-07-16T09:23:37;22.60;69.20
6824;DHT22;58633;49.470;11.004;2023-07-16T09:26:03;22.00;68.40
6824;DHT22;58633;49.470;11.004;2023-07-16T09:28:30;23.30;69.30
6824;DHT22;58633;49.470;11.004;2023-07-16T09:31:04;22.80;68.20
6824;DHT22;58633;49.470;11.004;2023-07-16T09:33:31;24.20;69.30
6824;DHT22;58633;49.470;11.004;2023-07-16T09:35:57;22.30;67.40
6824;DHT22;58633;49.470;11.004;2023-07-16T09:38:23;22.40;66.60
6824;DHT22;58633;49.470;11.004;2023-07-16T09:40:51;22.70;66.90
6824;DHT22;58633;49.470;11.004;2023-07-16T09:43:17;22.80;66.20
6824;DHT22;58633;49.470;11.004;2023-07-16T09:45:43;22.80;65.90
6824;DHT22;58633;49.470;11.004;2023-07-16T09:48:09;22.90;64.80
6824;DHT22;58633;49.470;11.004;2023-07-16T09:50:36;22.90;62.80
6824;DHT22;58633;49.470;11.004;2023-07-16T09:53:05;22.80;62.60
6824;DHT22;58633;49.470;11.004;2023-07-16T09:55:34;22.80;61.40
6824;DHT22;58633;49.470;11.004;2023-07-16T09:58:02;22.80;61.30
6824;DHT22;58633;49.470;11.004;2023-07-16T10:00:29;22.80;60.90
6824;DHT22;58633;49.470;11.004;2023-07-16T10:02:57;22.90;61.40
6824;DHT22;58633;49.470;11.004;2023-07-16T10:05:27;23.00;60.50
6824;DHT22;58633;49.470;11.004;2023-07-16T10:08:00;23.00;59.80
6824;DHT22;58633;49.470;11.004;2023-07-16T10:10:52;23.30;59.80
6824;DHT22;58633;49.470;11.004;2023-07-16T10:13:22;23.30;59.40
6824;DHT22;58633;49.470;11.004;2023-07-16T10:15:56;23.70;60.10
6824;DHT22;58633;49.470;11.004;2023-07-16T10:21:00;23.80;59.20
6824;DHT22;58633;49.470;11.004;2023-07-16T10:23:37;23.90;58.40
6824;DHT22;58633;49.470;11.004;2023-07-16T10:26:05;23.90;58.30
6824;DHT22;58633;49.470;11.004;2023-07-16T10:28:35;24.00;58.70
6824;DHT22;58633;49.470;11.004;2023-07-16T10:31:01;24.00;58.70
6824;DHT22;58633;49.470;11.004;2023-07-16T10:33:27;24.00;59.00
6824;DHT22;58633;49.470;11.004;2023-07-16T10:35:53;24.10;58.80
6824;DHT22;58633;49.470;11.004;2023-07-16T10:38:18;24.20;58.80
6824;DHT22;58633;49.470;11.004;2023-07-16T10:40:45;24.20;57.60
6824;DHT22;58633;49.470;11.004;2023-07-16T10:43:12;25.60;57.90
6824;DHT22;58633;49.470;11.004;2023-07-16T10:45:37;24.00;56.80
6824;DHT22;58633;49.470;11.004;2023-07-16T10:48:04;24.20;56.50
6824;DHT22;58633;49.470;11.004;2023-07-16T10:50:32;24.30;55.30
6824;DHT22;58633;49.470;11.004;2023-07-16T10:52:59;24.20;55.60
6824;DHT22;58633;49.470;11.004;2023-07-16T10:55:26;24.20;55.00
6824;DHT22;58633;49.470;11.004;2023-07-16T10:57:53;24.30;54.60
6824;DHT22;58633;49.470;11.004;2023-07-16T11:00:20;24.20;54.00
6824;DHT22;58633;49.470;11.004;2023-07-16T11:02:46;24.20;54.40
6824;DHT22;58633;49.470;11.004;2023-07-16T11:05:13;24.30;54.50
6824;DHT22;58633;49.470;11.004;2023-07-16T11:07:43;24.90;55.80
6824;DHT22;58633;49.470;11.004;2023-07-16T11:10:10;24.20;54.80
6824;DHT22;58633;49.470;11.004;2023-07-16T11:12:35;24.20;54.40
6824;DHT22;58633;49.470;11.004;2023-07-16T11:15:01;24.20;54.70
6824;DHT22;58633;49.470;11.004;2023-07-16T11:17:27;24.30;55.00
6824;DHT22;58633;49.470;11.004;2023-07-16T11:19:53;24.60;55.10
6824;DHT22;58633;49.470;11.004;2023-07-16T11:22:24;25.00;54.70
6824;DHT22;58633;49.470;11.004;2023-07-16T11:24:50;25.10;53.80
6824;DHT22;58633;49.470;11.004;2023-07-16T11:27:18;25.40;53.90
6824;DHT22;58633;49.470;11.004;2023-07-16T11:29:53;25.60;53.60
6824;DHT22;58633;49.470;11.004;2023-07-16T11:32:35;25.40;53.30
6824;DHT22;58633;49.470;11.004;2023-07-16T11:35:05;25.30;53.30
6824;DHT22;58633;49.470;11.004;2023-07-16T11:37:32;25.40;53.70
6824;DHT22;58633;49.470;11.004;2023-07-16T11:40:05;26.00;52.80
6824;DHT22;58633;49.470;11.004;2023-07-16T11:42:39;25.90;52.20
6824;DHT22;58633;49.470;11.004;2023-07-16T11:45:14;25.90;52.50
6824;DHT22;58633;49.470;11.004;2023-07-16T11:47:40;25.90;52.10
6824;DHT22;58633;49.470;11.004;2023-07-16T11:50:06;25.90;52.00
6824;DHT22;58633;49.470;11.004;2023-07-16T11:52:32;26.00;52.20
6824;DHT22;58633;49.470;11.004;2023-07-16T11:54:59;26.30;52.00
6824;DHT22;58633;49.470;11.004;2023-07-16T11:57:30;26.50;51.40
6824;DHT22;58633;49.470;11.004;2023-07-16T11:59:56;26.60;50.50
6824;DHT22;58633;49.470;11.004;2023-07-16T12:02:22;26.90;50.70
6824;DHT22;58633;49.470;11.004;2023-07-16T12:04:48;27.10;50.10
6824;DHT22;58633;49.470;11.004;2023-07-16T12:07:14;27.50;50.20
6824;DHT22;58633;49.470;11.004;2023-07-16T12:09:40;28.90;50.10
6824;DHT22;58633;49.470;11.004;2023-07-16T12:12:06;28.20;48.90
6824;DHT22;58633;49.470;11.004;2023-07-16T12:14:31;28.50;48.10
6824;DHT22;58633;49.470;11.004;2023-07-16T12:16:57;28.70;47.60
6824;DHT22;58633;49.470;11.004;2023-07-16T12:19:23;28.50;47.50
6824;DHT22;58633;49.470;11.004;2023-07-16T12:21:49;28.90;47.50
6824;DHT22;58633;49.470;11.004;2023-07-16T12:24:15;29.40;46.90
6824;DHT22;58633;49.470;11.004;2023-07-16T12:26:40;29.80;45.60
6824;DHT22;58633;49.470;11.004;2023-07-16T12:29:06;29.60;45.80
6824;DHT22;58633;49.470;11.004;2023-07-16T12:31:31;29.50;46.30
6824;DHT22;58633;49.470;11.004;2023-07-16T12:33:58;29.60;46.30
6824;DHT22;58633;49.470;11.004;2023-07-16T12:36:24;29.40;46.10
6824;DHT22;58633;49.470;11.004;2023-07-16T12:38:50;29.30;45.90
6824;DHT22;58633;49.470;11.004;2023-07-16T12:41:15;29.20;45.50
6824;DHT22;58633;49.470;11.004;2023-07-16T12:43:42;29.40;45.50
6824;DHT22;58633;49.470;11.004;2023-07-16T12:46:08;28.90;45.50
6824;DHT22;58633;49.470;11.004;2023-07-16T12:48:35;29.10;46.00
6824;DHT22;58633;49.470;11.004;2023-07-16T12:51:01;29.50;45.50
6824;DHT22;58633;49.470;11.004;2023-07-16T12:53:32;29.90;44.50
6824;DHT22;58633;49.470;11.004;2023-07-16T12:55:59;29.90;43.90
6824;DHT22;58633;49.470;11.004;2023-07-16T12:58:25;30.20;44.20
6824;DHT22;58633;49.470;11.004;2023-07-16T13:00:52;32.00;44.50
6824;DHT22;58633;49.470;11.004;2023-07-16T13:03:18;31.90;44.00
6824;DHT22;58633;49.470;11.004;2023-07-16T13:05:44;31.20;43.40
6824;DHT22;58633;49.470;11.004;2023-07-16T13:08:11;31.90;42.60
6824;DHT22;58633;49.470;11.004;2023-07-16T13:10:37;33.20;41.80
6824;DHT22;58633;49.470;11.004;2023-07-16T13:13:04;32.40;40.30
6824;DHT22;58633;49.470;11.004;2023-07-16T13:15:30;32.20;40.20
6824;DHT22;58633;49.470;11.004;2023-07-16T13:17:55;33.90;42.20
6824;DHT22;58633;49.470;11.004;2023-07-16T13:20:21;33.10;41.80
6824;DHT22;58633;49.470;11.004;2023-07-16T13:22:49;31.90;41.10
6824;DHT22;58633;49.470;11.004;2023-07-16T13:25:14;32.00;41.10
6824;DHT22;58633;49.470;11.004;2023-07-16T13:27:40;31.70;40.30
6824;DHT22;58633;49.470;11.004;2023-07-16T13:30:06;31.60;40.40
6824;DHT22;58633;49.470;11.004;2023-07-16T13:32:32;31.60;40.90
6824;DHT22;58633;49.470;11.004;2023-07-16T13:35:06;31.70;41.10
6824;DHT22;58633;49.470;11.004;2023-07-16T13:37:32;31.60;42.00
6824;DHT22;58633;49.470;11.004;2023-07-16T13:40:00;32.00;41.50
6824;DHT22;58633;49.470;11.004;2023-07-16T13:43:21;32.00;40.60
6824;DHT22;58633;49.470;11.004;2023-07-16T13:45:48;31.60;40.90
6824;DHT22;58633;49.470;11.004;2023-07-16T13:48:55;31.50;40.70
6824;DHT22;58633;49.470;11.004;2023-07-16T13:51:21;29.80;39.70
6824;DHT22;58633;49.470;11.004;2023-07-16T13:54:06;32.50;42.50
6824;DHT22;58633;49.470;11.004;2023-07-16T13:56:35;28.40;39.60
6824;DHT22;58633;49.470;11.004;2023-07-16T14:02:13;32.00;42.50
6824;DHT22;58633;49.470;11.004;2023-07-16T14:04:44;30.50;42.50
6824;DHT22;58633;49.470;11.004;2023-07-16T14:07:36;30.10;42.40
6824;DHT22;58633;49.470;11.004;2023-07-16T14:10:01;30.90;43.00
6824;DHT22;58633;49.470;11.004;2023-07-16T14:12:27;30.10;42.40
6824;DHT22;58633;49.470;11.004;2023-07-16T14:14:52;32.10;43.10
6824;DHT22;58633;49.470;11.004;2023-07-16T14:20:12;30.40;41.40
6824;DHT22;58633;49.470;11.004;2023-07-16T14:25:43;30.50;41.60
6824;DHT22;58633;49.470;11.004;2023-07-16T14:28:14;30.60;41.80
6824;DHT22;58633;49.470;11.004;2023-07-16T14:30:40;30.60;40.80
6824;DHT22;58633;49.470;11.004;2023-07-16T14:33:06;30.20;40.90
6824;DHT22;58633;49.470;11.004;2023-07-16T14:35:33;31.20;40.70
6824;DHT22;58633;49.470;11.004;2023-07-16T14:37:59;30.90;40.50
6824;DHT22;58633;49.470;11.004;2023-07-16T14:40:24;30.70;40.70
6824;DHT22;58633;49.470;11.004;2023-07-16T14:42:51;32.60;42.10
6824;DHT22;58633;49.470;11.004;2023-07-16T14:45:17;29.60;40.60
6824;DHT22;58633;49.470;11.004;2023-07-16T14:47:43;30.90;40.60
6824;DHT22;58633;49.470;11.004;2023-07-16T14:50:09;32.20;41.70
6824;DHT22;58633;49.470;11.004;2023-07-16T14:52:35;31.40;40.80
6824;DHT22;58633;49.470;11.004;2023-07-16T14:55:01;31.60;40.10
6824;DHT22;58633;49.470;11.004;2023-07-16T14:57:29;31.40;40.00
6824;DHT22;58633;49.470;11.004;2023-07-16T14:59:55;31.60;40.00
6824;DHT22;58633;49.470;11.004;2023-07-16T15:02:21;31.80;39.70
6824;DHT22;58633;49.470;11.004;2023-07-16T15:04:47;33.10;39.10
6824;DHT22;58633;49.470;11.004;2023-07-16T15:07:12;32.60;38.20
6824;DHT22;58633;49.470;11.004;2023-07-16T15:09:38;32.90;38.10
6824;DHT22;58633;49.470;11.004;2023-07-16T15:12:05;33.90;38.40
6824;DHT22;58633;49.470;11.004;2023-07-16T15:14:31;32.40;37.80
6824;DHT22;58633;49.470;11.004;2023-07-16T15:16:58;33.70;38.00
6824;DHT22;58633;49.470;11.004;2023-07-16T15:19:23;34.40;38.00
6824;DHT22;58633;49.470;11.004;2023-07-16T15:21:49;33.10;37.00
6824;DHT22;58633;49.470;11.004;2023-07-16T15:24:14;34.20;38.10
6824;DHT22;58633;49.470;11.004;2023-07-16T15:26:40;33.00;37.00
6824;DHT22;58633;49.470;11.004;2023-07-16T15:29:06;33.10;36.50
6824;DHT22;58633;49.470;11.004;2023-07-16T15:31:32;34.10;37.80
6824;DHT22;58633;49.470;11.004;2023-07-16T15:33:57;32.40;37.50
6824;DHT22;58633;49.470;11.004;2023-07-16T15:36:24;34.20;38.70
6824;DHT22;58633;49.470;11.004;2023-07-16T15:38:50;32.20;37.80
6824;DHT22;58633;49.470;11.004;2023-07-16T15:41:17;31.90;37.90
6824;DHT22;58633;49.470;11.004;2023-07-16T15:43:50;31.70;39.00